<?xml version="1.0" encoding="UTF-8" standalone="no" ?>
<gpx xmlns="http://www.topografix.com/GPX/1/1" xmlns:xsi="http://www.w3.org/2001/XMLSchema-instance" xsi:schemaLocation="http://www.topografix.com/GPX/1/1 http://www.topografix.com/GPX/1/1/gpx.xsd" version="1.1" creator="VisuGPX - https://www.visugpx.com">
  <metadata>
    <name>Tour de la vallée de l'Avance à cheval</name>
    <desc><![CDATA[Test test test]]></desc>
  </metadata>
  <trk>
    <name><![CDATA[OR-5896043--Montgardin:Tour de l'Avance]]></name>
    <trkseg>
      <trkpt lat="44.54549" lon="6.20985">
        <ele>785</ele>
        <time>2016-06-17T10:06:09Z</time>
      </trkpt>
      <trkpt lat="44.54519" lon="6.20938">
        <ele>786</ele>
        <time>2016-06-17T10:08:09Z</time>
      </trkpt>
      <trkpt lat="44.54525" lon="6.21084">
        <ele>805</ele>
        <time>2016-06-17T10:10:09Z</time>
      </trkpt>
      <trkpt lat="44.54561" lon="6.21251">
        <ele>818</ele>
        <time>2016-06-17T10:12:09Z</time>
      </trkpt>
      <trkpt lat="44.54604" lon="6.21393">
        <ele>828</ele>
        <time>2016-06-17T10:14:09Z</time>
      </trkpt>
      <trkpt lat="44.54626" lon="6.21616">
        <ele>847</ele>
        <time>2016-06-17T10:16:09Z</time>
      </trkpt>
      <trkpt lat="44.5465" lon="6.21723">
        <ele>855</ele>
        <time>2016-06-17T10:18:09Z</time>
      </trkpt>
      <trkpt lat="44.5469" lon="6.21942">
        <ele>879</ele>
        <time>2016-06-17T10:20:09Z</time>
      </trkpt>
      <trkpt lat="44.54671" lon="6.2202">
        <ele>886</ele>
        <time>2016-06-17T10:22:09Z</time>
      </trkpt>
      <trkpt lat="44.54598" lon="6.2208">
        <ele>885</ele>
        <time>2016-06-17T10:24:09Z</time>
      </trkpt>
      <trkpt lat="44.54512" lon="6.22166">
        <ele>889</ele>
        <time>2016-06-17T10:26:09Z</time>
      </trkpt>
      <trkpt lat="44.54439" lon="6.22247">
        <ele>902</ele>
        <time>2016-06-17T10:28:09Z</time>
      </trkpt>
      <trkpt lat="44.54378" lon="6.22264">
        <ele>900</ele>
        <time>2016-06-17T10:30:09Z</time>
      </trkpt>
      <trkpt lat="44.54323" lon="6.22281">
        <ele>900</ele>
        <time>2016-06-17T10:32:09Z</time>
      </trkpt>
      <trkpt lat="44.54252" lon="6.22281">
        <ele>901</ele>
        <time>2016-06-17T10:34:09Z</time>
      </trkpt>
      <trkpt lat="44.54191" lon="6.22256">
        <ele>898</ele>
        <time>2016-06-17T10:36:09Z</time>
      </trkpt>
      <trkpt lat="44.54118" lon="6.22247">
        <ele>898</ele>
        <time>2016-06-17T10:38:09Z</time>
      </trkpt>
      <trkpt lat="44.5406" lon="6.22226">
        <ele>901</ele>
        <time>2016-06-17T10:40:09Z</time>
      </trkpt>
      <trkpt lat="44.53925" lon="6.2208">
        <ele>921</ele>
        <time>2016-06-17T10:42:09Z</time>
      </trkpt>
      <trkpt lat="44.5391" lon="6.21964">
        <ele>927</ele>
        <time>2016-06-17T10:44:09Z</time>
      </trkpt>
      <trkpt lat="44.53839" lon="6.21968">
        <ele>939</ele>
        <time>2016-06-17T10:46:09Z</time>
      </trkpt>
      <trkpt lat="44.53763" lon="6.22054">
        <ele>945</ele>
        <time>2016-06-17T10:48:09Z</time>
      </trkpt>
      <trkpt lat="44.53702" lon="6.22127">
        <ele>952</ele>
        <time>2016-06-17T10:50:09Z</time>
      </trkpt>
      <trkpt lat="44.53754" lon="6.22174">
        <ele>960</ele>
        <time>2016-06-17T10:52:09Z</time>
      </trkpt>
      <trkpt lat="44.53766" lon="6.22221">
        <ele>969</ele>
        <time>2016-06-17T10:54:09Z</time>
      </trkpt>
      <trkpt lat="44.53717" lon="6.22238">
        <ele>973</ele>
        <time>2016-06-17T10:56:09Z</time>
      </trkpt>
      <trkpt lat="44.53781" lon="6.2232">
        <ele>994</ele>
        <time>2016-06-17T10:58:09Z</time>
      </trkpt>
      <trkpt lat="44.53827" lon="6.22376">
        <ele>1000</ele>
        <time>2016-06-17T11:00:09Z</time>
      </trkpt>
      <trkpt lat="44.53873" lon="6.22552">
        <ele>1021</ele>
        <time>2016-06-17T11:02:09Z</time>
      </trkpt>
      <trkpt lat="44.53882" lon="6.22638">
        <ele>1034</ele>
        <time>2016-06-17T11:04:09Z</time>
      </trkpt>
      <trkpt lat="44.53839" lon="6.22573">
        <ele>1038</ele>
        <time>2016-06-17T11:06:09Z</time>
      </trkpt>
      <trkpt lat="44.53751" lon="6.22556">
        <ele>1046</ele>
        <time>2016-06-17T11:08:09Z</time>
      </trkpt>
      <trkpt lat="44.53769" lon="6.22629">
        <ele>1050</ele>
        <time>2016-06-17T11:10:09Z</time>
      </trkpt>
      <trkpt lat="44.53791" lon="6.22685">
        <ele>1055</ele>
        <time>2016-06-17T11:12:09Z</time>
      </trkpt>
      <trkpt lat="44.53794" lon="6.22848">
        <ele>1060</ele>
        <time>2016-06-17T11:14:09Z</time>
      </trkpt>
      <trkpt lat="44.53809" lon="6.23028">
        <ele>1059</ele>
        <time>2016-06-17T11:16:09Z</time>
      </trkpt>
      <trkpt lat="44.53864" lon="6.23444">
        <ele>1058</ele>
        <time>2016-06-17T11:18:09Z</time>
      </trkpt>
      <trkpt lat="44.53913" lon="6.23487">
        <ele>1060</ele>
        <time>2016-06-17T11:20:09Z</time>
      </trkpt>
      <trkpt lat="44.53971" lon="6.23556">
        <ele>1046</ele>
        <time>2016-06-17T11:22:09Z</time>
      </trkpt>
      <trkpt lat="44.53968" lon="6.23663">
        <ele>1034</ele>
        <time>2016-06-17T11:24:09Z</time>
      </trkpt>
      <trkpt lat="44.5394" lon="6.23706">
        <ele>1026</ele>
        <time>2016-06-17T11:26:09Z</time>
      </trkpt>
      <trkpt lat="44.53876" lon="6.23736">
        <ele>1012</ele>
        <time>2016-06-17T11:28:09Z</time>
      </trkpt>
      <trkpt lat="44.53833" lon="6.23685">
        <ele>1018</ele>
        <time>2016-06-17T11:30:09Z</time>
      </trkpt>
      <trkpt lat="44.53818" lon="6.23715">
        <ele>1010</ele>
        <time>2016-06-17T11:32:09Z</time>
      </trkpt>
      <trkpt lat="44.5383" lon="6.23788">
        <ele>1001</ele>
        <time>2016-06-17T11:34:09Z</time>
      </trkpt>
      <trkpt lat="44.53898" lon="6.23848">
        <ele>996</ele>
        <time>2016-06-17T11:36:09Z</time>
      </trkpt>
      <trkpt lat="44.53934" lon="6.23916">
        <ele>987</ele>
        <time>2016-06-17T11:38:09Z</time>
      </trkpt>
      <trkpt lat="44.53934" lon="6.24024">
        <ele>984</ele>
        <time>2016-06-17T11:40:09Z</time>
      </trkpt>
      <trkpt lat="44.53977" lon="6.24144">
        <ele>978</ele>
        <time>2016-06-17T11:42:09Z</time>
      </trkpt>
      <trkpt lat="44.54047" lon="6.24178">
        <ele>970</ele>
        <time>2016-06-17T11:44:09Z</time>
      </trkpt>
      <trkpt lat="44.54051" lon="6.24393">
        <ele>971</ele>
        <time>2016-06-17T11:46:09Z</time>
      </trkpt>
      <trkpt lat="44.54179" lon="6.24444">
        <ele>975</ele>
        <time>2016-06-17T11:48:09Z</time>
      </trkpt>
      <trkpt lat="44.54277" lon="6.24509">
        <ele>978</ele>
        <time>2016-06-17T11:50:09Z</time>
      </trkpt>
      <trkpt lat="44.54366" lon="6.24582">
        <ele>977</ele>
        <time>2016-06-17T11:52:09Z</time>
      </trkpt>
      <trkpt lat="44.54473" lon="6.2456">
        <ele>977</ele>
        <time>2016-06-17T11:54:09Z</time>
      </trkpt>
      <trkpt lat="44.54555" lon="6.2459">
        <ele>968</ele>
        <time>2016-06-17T11:56:09Z</time>
      </trkpt>
      <trkpt lat="44.54567" lon="6.24676">
        <ele>968</ele>
        <time>2016-06-17T11:58:09Z</time>
      </trkpt>
      <trkpt lat="44.54619" lon="6.24749">
        <ele>963</ele>
        <time>2016-06-17T12:00:09Z</time>
      </trkpt>
      <trkpt lat="44.54598" lon="6.24835">
        <ele>970</ele>
        <time>2016-06-17T12:02:09Z</time>
      </trkpt>
      <trkpt lat="44.54512" lon="6.25131">
        <ele>988</ele>
        <time>2016-06-17T12:04:09Z</time>
      </trkpt>
      <trkpt lat="44.54522" lon="6.25221">
        <ele>986</ele>
        <time>2016-06-17T12:06:09Z</time>
      </trkpt>
      <trkpt lat="44.54467" lon="6.25376">
        <ele>990</ele>
        <time>2016-06-17T12:08:09Z</time>
      </trkpt>
      <trkpt lat="44.54439" lon="6.25453">
        <ele>989</ele>
        <time>2016-06-17T12:10:09Z</time>
      </trkpt>
      <trkpt lat="44.54359" lon="6.25577">
        <ele>985</ele>
        <time>2016-06-17T12:12:09Z</time>
      </trkpt>
      <trkpt lat="44.54307" lon="6.25629">
        <ele>986</ele>
        <time>2016-06-17T12:14:09Z</time>
      </trkpt>
      <trkpt lat="44.54207" lon="6.25564">
        <ele>1005</ele>
        <time>2016-06-17T12:16:09Z</time>
      </trkpt>
      <trkpt lat="44.54151" lon="6.25603">
        <ele>1001</ele>
        <time>2016-06-17T12:18:09Z</time>
      </trkpt>
      <trkpt lat="44.54133" lon="6.25513">
        <ele>1022</ele>
        <time>2016-06-17T12:20:09Z</time>
      </trkpt>
      <trkpt lat="44.5409" lon="6.25461">
        <ele>1034</ele>
        <time>2016-06-17T12:22:09Z</time>
      </trkpt>
      <trkpt lat="44.54063" lon="6.25483">
        <ele>1040</ele>
        <time>2016-06-17T12:24:09Z</time>
      </trkpt>
      <trkpt lat="44.54047" lon="6.2562">
        <ele>1029</ele>
        <time>2016-06-17T12:26:09Z</time>
      </trkpt>
      <trkpt lat="44.53974" lon="6.25697">
        <ele>1041</ele>
        <time>2016-06-17T12:28:09Z</time>
      </trkpt>
      <trkpt lat="44.53898" lon="6.25655">
        <ele>1071</ele>
        <time>2016-06-17T12:30:09Z</time>
      </trkpt>
      <trkpt lat="44.53806" lon="6.25659">
        <ele>1091</ele>
        <time>2016-06-17T12:32:09Z</time>
      </trkpt>
      <trkpt lat="44.53763" lon="6.25727">
        <ele>1090</ele>
        <time>2016-06-17T12:34:09Z</time>
      </trkpt>
      <trkpt lat="44.5365" lon="6.25826">
        <ele>1088</ele>
        <time>2016-06-17T12:36:09Z</time>
      </trkpt>
      <trkpt lat="44.53595" lon="6.25873">
        <ele>1085</ele>
        <time>2016-06-17T12:38:09Z</time>
      </trkpt>
      <trkpt lat="44.53549" lon="6.25985">
        <ele>1069</ele>
        <time>2016-06-17T12:40:09Z</time>
      </trkpt>
      <trkpt lat="44.53488" lon="6.26024">
        <ele>1059</ele>
        <time>2016-06-17T12:42:09Z</time>
      </trkpt>
      <trkpt lat="44.53445" lon="6.26062">
        <ele>1050</ele>
        <time>2016-06-17T12:44:09Z</time>
      </trkpt>
      <trkpt lat="44.53408" lon="6.26221">
        <ele>1035</ele>
        <time>2016-06-17T12:46:09Z</time>
      </trkpt>
      <trkpt lat="44.53381" lon="6.26281">
        <ele>1033</ele>
        <time>2016-06-17T12:48:09Z</time>
      </trkpt>
      <trkpt lat="44.53359" lon="6.26406">
        <ele>1035</ele>
        <time>2016-06-17T12:50:09Z</time>
      </trkpt>
      <trkpt lat="44.5328" lon="6.2638">
        <ele>1035</ele>
        <time>2016-06-17T12:52:09Z</time>
      </trkpt>
      <trkpt lat="44.53185" lon="6.26371">
        <ele>1035</ele>
        <time>2016-06-17T12:54:09Z</time>
      </trkpt>
      <trkpt lat="44.53121" lon="6.26444">
        <ele>1033</ele>
        <time>2016-06-17T12:56:09Z</time>
      </trkpt>
      <trkpt lat="44.53099" lon="6.26551">
        <ele>1030</ele>
        <time>2016-06-17T12:58:09Z</time>
      </trkpt>
      <trkpt lat="44.53118" lon="6.26706">
        <ele>1029</ele>
        <time>2016-06-17T13:00:09Z</time>
      </trkpt>
      <trkpt lat="44.53108" lon="6.26792">
        <ele>1032</ele>
        <time>2016-06-17T13:02:09Z</time>
      </trkpt>
      <trkpt lat="44.53072" lon="6.26852">
        <ele>1026</ele>
        <time>2016-06-17T13:04:09Z</time>
      </trkpt>
      <trkpt lat="44.53035" lon="6.26933">
        <ele>1018</ele>
        <time>2016-06-17T13:06:09Z</time>
      </trkpt>
      <trkpt lat="44.52995" lon="6.27006">
        <ele>1009</ele>
        <time>2016-06-17T13:08:09Z</time>
      </trkpt>
      <trkpt lat="44.52977" lon="6.27075">
        <ele>1007</ele>
        <time>2016-06-17T13:10:09Z</time>
      </trkpt>
      <trkpt lat="44.52955" lon="6.27195">
        <ele>1010</ele>
        <time>2016-06-17T13:12:09Z</time>
      </trkpt>
      <trkpt lat="44.52903" lon="6.27251">
        <ele>1011</ele>
        <time>2016-06-17T13:14:09Z</time>
      </trkpt>
      <trkpt lat="44.52815" lon="6.27333">
        <ele>1003</ele>
        <time>2016-06-17T13:16:09Z</time>
      </trkpt>
      <trkpt lat="44.52717" lon="6.2738">
        <ele>989</ele>
        <time>2016-06-17T13:18:09Z</time>
      </trkpt>
      <trkpt lat="44.52646" lon="6.27457">
        <ele>981</ele>
        <time>2016-06-17T13:20:09Z</time>
      </trkpt>
      <trkpt lat="44.52576" lon="6.27418">
        <ele>972</ele>
        <time>2016-06-17T13:22:09Z</time>
      </trkpt>
      <trkpt lat="44.52515" lon="6.27358">
        <ele>964</ele>
        <time>2016-06-17T13:24:09Z</time>
      </trkpt>
      <trkpt lat="44.52429" lon="6.27375">
        <ele>955</ele>
        <time>2016-06-17T13:26:09Z</time>
      </trkpt>
      <trkpt lat="44.52377" lon="6.27448">
        <ele>955</ele>
        <time>2016-06-17T13:28:09Z</time>
      </trkpt>
      <trkpt lat="44.52279" lon="6.27517">
        <ele>941</ele>
        <time>2016-06-17T13:30:09Z</time>
      </trkpt>
      <trkpt lat="44.52233" lon="6.27586">
        <ele>937</ele>
        <time>2016-06-17T13:32:09Z</time>
      </trkpt>
      <trkpt lat="44.52246" lon="6.27676">
        <ele>931</ele>
        <time>2016-06-17T13:34:09Z</time>
      </trkpt>
      <trkpt lat="44.52285" lon="6.27787">
        <ele>933</ele>
        <time>2016-06-17T13:36:09Z</time>
      </trkpt>
      <trkpt lat="44.52322" lon="6.27843">
        <ele>932</ele>
        <time>2016-06-17T13:38:09Z</time>
      </trkpt>
      <trkpt lat="44.5227" lon="6.27972">
        <ele>943</ele>
        <time>2016-06-17T13:40:09Z</time>
      </trkpt>
      <trkpt lat="44.52233" lon="6.2792">
        <ele>951</ele>
        <time>2016-06-17T13:42:09Z</time>
      </trkpt>
      <trkpt lat="44.52151" lon="6.27925">
        <ele>966</ele>
        <time>2016-06-17T13:44:09Z</time>
      </trkpt>
      <trkpt lat="44.52065" lon="6.27993">
        <ele>985</ele>
        <time>2016-06-17T13:46:09Z</time>
      </trkpt>
      <trkpt lat="44.5201" lon="6.27976">
        <ele>988</ele>
        <time>2016-06-17T13:48:09Z</time>
      </trkpt>
      <trkpt lat="44.51937" lon="6.28015">
        <ele>1004</ele>
        <time>2016-06-17T13:50:09Z</time>
      </trkpt>
      <trkpt lat="44.51829" lon="6.28028">
        <ele>1017</ele>
        <time>2016-06-17T13:52:09Z</time>
      </trkpt>
      <trkpt lat="44.5178" lon="6.28144">
        <ele>1025</ele>
        <time>2016-06-17T13:54:09Z</time>
      </trkpt>
      <trkpt lat="44.51728" lon="6.28187">
        <ele>1016</ele>
        <time>2016-06-17T13:56:09Z</time>
      </trkpt>
      <trkpt lat="44.51683" lon="6.28126">
        <ele>1015</ele>
        <time>2016-06-17T13:58:09Z</time>
      </trkpt>
      <trkpt lat="44.51698" lon="6.28019">
        <ele>1024</ele>
        <time>2016-06-17T14:00:09Z</time>
      </trkpt>
      <trkpt lat="44.51649" lon="6.27963">
        <ele>1030</ele>
        <time>2016-06-17T14:02:09Z</time>
      </trkpt>
      <trkpt lat="44.51661" lon="6.27869">
        <ele>1037</ele>
        <time>2016-06-17T14:04:09Z</time>
      </trkpt>
      <trkpt lat="44.51603" lon="6.278">
        <ele>1041</ele>
        <time>2016-06-17T14:06:09Z</time>
      </trkpt>
      <trkpt lat="44.51637" lon="6.27732">
        <ele>1047</ele>
        <time>2016-06-17T14:08:09Z</time>
      </trkpt>
      <trkpt lat="44.51572" lon="6.27749">
        <ele>1048</ele>
        <time>2016-06-17T14:10:09Z</time>
      </trkpt>
      <trkpt lat="44.51579" lon="6.27611">
        <ele>1064</ele>
        <time>2016-06-17T14:12:09Z</time>
      </trkpt>
      <trkpt lat="44.51588" lon="6.27513">
        <ele>1073</ele>
        <time>2016-06-17T14:14:09Z</time>
      </trkpt>
      <trkpt lat="44.51615" lon="6.2741">
        <ele>1076</ele>
        <time>2016-06-17T14:16:09Z</time>
      </trkpt>
      <trkpt lat="44.51603" lon="6.27311">
        <ele>1080</ele>
        <time>2016-06-17T14:18:09Z</time>
      </trkpt>
      <trkpt lat="44.51594" lon="6.27234">
        <ele>1083</ele>
        <time>2016-06-17T14:20:09Z</time>
      </trkpt>
      <trkpt lat="44.51566" lon="6.27174">
        <ele>1083</ele>
        <time>2016-06-17T14:22:09Z</time>
      </trkpt>
      <trkpt lat="44.51615" lon="6.27041">
        <ele>1082</ele>
        <time>2016-06-17T14:24:09Z</time>
      </trkpt>
      <trkpt lat="44.51686" lon="6.26951">
        <ele>1082</ele>
        <time>2016-06-17T14:26:09Z</time>
      </trkpt>
      <trkpt lat="44.51741" lon="6.26809">
        <ele>1081</ele>
        <time>2016-06-17T14:28:09Z</time>
      </trkpt>
      <trkpt lat="44.51753" lon="6.26757">
        <ele>1084</ele>
        <time>2016-06-17T14:30:09Z</time>
      </trkpt>
      <trkpt lat="44.5179" lon="6.26543">
        <ele>1096</ele>
        <time>2016-06-17T14:32:09Z</time>
      </trkpt>
      <trkpt lat="44.51805" lon="6.26397">
        <ele>1103</ele>
        <time>2016-06-17T14:34:09Z</time>
      </trkpt>
      <trkpt lat="44.51793" lon="6.2629">
        <ele>1108</ele>
        <time>2016-06-17T14:36:09Z</time>
      </trkpt>
      <trkpt lat="44.51765" lon="6.26418">
        <ele>1098</ele>
        <time>2016-06-17T14:38:09Z</time>
      </trkpt>
      <trkpt lat="44.51716" lon="6.2647">
        <ele>1095</ele>
        <time>2016-06-17T14:40:09Z</time>
      </trkpt>
      <trkpt lat="44.51563" lon="6.26663">
        <ele>1097</ele>
        <time>2016-06-17T14:42:09Z</time>
      </trkpt>
      <trkpt lat="44.51502" lon="6.26753">
        <ele>1087</ele>
        <time>2016-06-17T14:44:09Z</time>
      </trkpt>
      <trkpt lat="44.51377" lon="6.26779">
        <ele>1102</ele>
        <time>2016-06-17T14:46:09Z</time>
      </trkpt>
      <trkpt lat="44.51276" lon="6.2683">
        <ele>1119</ele>
        <time>2016-06-17T14:48:09Z</time>
      </trkpt>
      <trkpt lat="44.51135" lon="6.26869">
        <ele>1146</ele>
        <time>2016-06-17T14:50:09Z</time>
      </trkpt>
      <trkpt lat="44.51028" lon="6.26886">
        <ele>1177</ele>
        <time>2016-06-17T14:52:09Z</time>
      </trkpt>
      <trkpt lat="44.51003" lon="6.26946">
        <ele>1177</ele>
        <time>2016-06-17T14:54:09Z</time>
      </trkpt>
      <trkpt lat="44.50963" lon="6.27036">
        <ele>1180</ele>
        <time>2016-06-17T14:56:09Z</time>
      </trkpt>
      <trkpt lat="44.50847" lon="6.27084">
        <ele>1216</ele>
        <time>2016-06-17T14:58:09Z</time>
      </trkpt>
      <trkpt lat="44.5081" lon="6.27191">
        <ele>1221</ele>
        <time>2016-06-17T15:00:09Z</time>
      </trkpt>
      <trkpt lat="44.50777" lon="6.2735">
        <ele>1224</ele>
        <time>2016-06-17T15:02:09Z</time>
      </trkpt>
      <trkpt lat="44.50734" lon="6.27466">
        <ele>1224</ele>
        <time>2016-06-17T15:04:09Z</time>
      </trkpt>
      <trkpt lat="44.50752" lon="6.27238">
        <ele>1251</ele>
        <time>2016-06-17T15:06:09Z</time>
      </trkpt>
      <trkpt lat="44.50688" lon="6.27337">
        <ele>1266</ele>
        <time>2016-06-17T15:08:09Z</time>
      </trkpt>
      <trkpt lat="44.50633" lon="6.27393">
        <ele>1268</ele>
        <time>2016-06-17T15:10:09Z</time>
      </trkpt>
      <trkpt lat="44.50544" lon="6.27405">
        <ele>1273</ele>
        <time>2016-06-17T15:12:09Z</time>
      </trkpt>
      <trkpt lat="44.50465" lon="6.27401">
        <ele>1275</ele>
        <time>2016-06-17T15:14:09Z</time>
      </trkpt>
      <trkpt lat="44.50544" lon="6.27298">
        <ele>1300</ele>
        <time>2016-06-17T15:16:09Z</time>
      </trkpt>
      <trkpt lat="44.50566" lon="6.27144">
        <ele>1337</ele>
        <time>2016-06-17T15:18:09Z</time>
      </trkpt>
      <trkpt lat="44.50581" lon="6.26921">
        <ele>1371</ele>
        <time>2016-06-17T15:20:09Z</time>
      </trkpt>
      <trkpt lat="44.50587" lon="6.2653">
        <ele>1429</ele>
        <time>2016-06-17T15:22:09Z</time>
      </trkpt>
      <trkpt lat="44.50556" lon="6.26122">
        <ele>1487</ele>
        <time>2016-06-17T15:24:09Z</time>
      </trkpt>
      <trkpt lat="44.50608" lon="6.25702">
        <ele>1518</ele>
        <time>2016-06-17T15:26:09Z</time>
      </trkpt>
      <trkpt lat="44.50728" lon="6.25285">
        <ele>1542</ele>
        <time>2016-06-17T15:28:09Z</time>
      </trkpt>
      <trkpt lat="44.50887" lon="6.25067">
        <ele>1537</ele>
        <time>2016-06-17T15:30:09Z</time>
      </trkpt>
      <trkpt lat="44.50991" lon="6.24981">
        <ele>1530</ele>
        <time>2016-06-17T15:32:09Z</time>
      </trkpt>
      <trkpt lat="44.51052" lon="6.24822">
        <ele>1513</ele>
        <time>2016-06-17T15:34:09Z</time>
      </trkpt>
      <trkpt lat="44.51083" lon="6.24564">
        <ele>1492</ele>
        <time>2016-06-17T15:36:09Z</time>
      </trkpt>
      <trkpt lat="44.51132" lon="6.24341">
        <ele>1455</ele>
        <time>2016-06-17T15:38:09Z</time>
      </trkpt>
      <trkpt lat="44.51202" lon="6.24247">
        <ele>1440</ele>
        <time>2016-06-17T15:40:09Z</time>
      </trkpt>
      <trkpt lat="44.51248" lon="6.2429">
        <ele>1426</ele>
        <time>2016-06-17T15:42:09Z</time>
      </trkpt>
      <trkpt lat="44.51346" lon="6.24208">
        <ele>1413</ele>
        <time>2016-06-17T15:44:09Z</time>
      </trkpt>
      <trkpt lat="44.51459" lon="6.24131">
        <ele>1402</ele>
        <time>2016-06-17T15:46:09Z</time>
      </trkpt>
      <trkpt lat="44.51551" lon="6.24152">
        <ele>1394</ele>
        <time>2016-06-17T15:48:09Z</time>
      </trkpt>
      <trkpt lat="44.51609" lon="6.24208">
        <ele>1387</ele>
        <time>2016-06-17T15:50:09Z</time>
      </trkpt>
      <trkpt lat="44.51695" lon="6.24307">
        <ele>1382</ele>
        <time>2016-06-17T15:52:09Z</time>
      </trkpt>
      <trkpt lat="44.51808" lon="6.24414">
        <ele>1367</ele>
        <time>2016-06-17T15:54:09Z</time>
      </trkpt>
      <trkpt lat="44.51989" lon="6.24337">
        <ele>1350</ele>
        <time>2016-06-17T15:56:09Z</time>
      </trkpt>
      <trkpt lat="44.52031" lon="6.2432">
        <ele>1349</ele>
        <time>2016-06-17T15:58:09Z</time>
      </trkpt>
      <trkpt lat="44.52022" lon="6.24127">
        <ele>1355</ele>
        <time>2016-06-17T16:00:09Z</time>
      </trkpt>
      <trkpt lat="44.5201" lon="6.23964">
        <ele>1366</ele>
        <time>2016-06-17T16:02:09Z</time>
      </trkpt>
      <trkpt lat="44.51952" lon="6.23801">
        <ele>1377</ele>
        <time>2016-06-17T16:04:09Z</time>
      </trkpt>
      <trkpt lat="44.51869" lon="6.23638">
        <ele>1376</ele>
        <time>2016-06-17T16:06:09Z</time>
      </trkpt>
      <trkpt lat="44.51762" lon="6.23569">
        <ele>1383</ele>
        <time>2016-06-17T16:08:09Z</time>
      </trkpt>
      <trkpt lat="44.51661" lon="6.23522">
        <ele>1384</ele>
        <time>2016-06-17T16:10:09Z</time>
      </trkpt>
      <trkpt lat="44.51575" lon="6.23496">
        <ele>1384</ele>
        <time>2016-06-17T16:12:09Z</time>
      </trkpt>
      <trkpt lat="44.51465" lon="6.23316">
        <ele>1385</ele>
        <time>2016-06-17T16:14:09Z</time>
      </trkpt>
      <trkpt lat="44.5137" lon="6.23097">
        <ele>1394</ele>
        <time>2016-06-17T16:16:09Z</time>
      </trkpt>
      <trkpt lat="44.51349" lon="6.23058">
        <ele>1396</ele>
        <time>2016-06-17T16:18:09Z</time>
      </trkpt>
      <trkpt lat="44.51294" lon="6.2302">
        <ele>1392</ele>
        <time>2016-06-17T16:20:09Z</time>
      </trkpt>
      <trkpt lat="44.51245" lon="6.22959">
        <ele>1392</ele>
        <time>2016-06-17T16:22:09Z</time>
      </trkpt>
      <trkpt lat="44.51144" lon="6.23002">
        <ele>1411</ele>
        <time>2016-06-17T16:24:09Z</time>
      </trkpt>
      <trkpt lat="44.51061" lon="6.23032">
        <ele>1418</ele>
        <time>2016-06-17T16:26:09Z</time>
      </trkpt>
      <trkpt lat="44.50966" lon="6.2305">
        <ele>1424</ele>
        <time>2016-06-17T16:28:09Z</time>
      </trkpt>
      <trkpt lat="44.5089" lon="6.23062">
        <ele>1417</ele>
        <time>2016-06-17T16:30:09Z</time>
      </trkpt>
      <trkpt lat="44.51009" lon="6.22959">
        <ele>1451</ele>
        <time>2016-06-17T16:32:09Z</time>
      </trkpt>
      <trkpt lat="44.51031" lon="6.22878">
        <ele>1463</ele>
        <time>2016-06-17T16:34:09Z</time>
      </trkpt>
      <trkpt lat="44.51018" lon="6.22728">
        <ele>1471</ele>
        <time>2016-06-17T16:36:09Z</time>
      </trkpt>
      <trkpt lat="44.51018" lon="6.22505">
        <ele>1493</ele>
        <time>2016-06-17T16:38:09Z</time>
      </trkpt>
      <trkpt lat="44.51092" lon="6.22269">
        <ele>1497</ele>
        <time>2016-06-17T16:40:09Z</time>
      </trkpt>
      <trkpt lat="44.50945" lon="6.22432">
        <ele>1517</ele>
        <time>2016-06-17T16:42:09Z</time>
      </trkpt>
      <trkpt lat="44.50905" lon="6.22402">
        <ele>1525</ele>
        <time>2016-06-17T16:44:09Z</time>
      </trkpt>
      <trkpt lat="44.50976" lon="6.22273">
        <ele>1533</ele>
        <time>2016-06-17T16:46:09Z</time>
      </trkpt>
      <trkpt lat="44.50979" lon="6.22153">
        <ele>1546</ele>
        <time>2016-06-17T16:48:09Z</time>
      </trkpt>
      <trkpt lat="44.51009" lon="6.21972">
        <ele>1562</ele>
        <time>2016-06-17T16:50:09Z</time>
      </trkpt>
      <trkpt lat="44.50905" lon="6.22157">
        <ele>1572</ele>
        <time>2016-06-17T16:52:09Z</time>
      </trkpt>
      <trkpt lat="44.50835" lon="6.22157">
        <ele>1580</ele>
        <time>2016-06-17T16:54:09Z</time>
      </trkpt>
      <trkpt lat="44.50807" lon="6.22075">
        <ele>1583</ele>
        <time>2016-06-17T16:56:09Z</time>
      </trkpt>
      <trkpt lat="44.50841" lon="6.21964">
        <ele>1596</ele>
        <time>2016-06-17T16:58:09Z</time>
      </trkpt>
      <trkpt lat="44.5089" lon="6.21891">
        <ele>1596</ele>
        <time>2016-06-17T17:00:09Z</time>
      </trkpt>
      <trkpt lat="44.50856" lon="6.21839">
        <ele>1602</ele>
        <time>2016-06-17T17:02:09Z</time>
      </trkpt>
      <trkpt lat="44.50804" lon="6.21835">
        <ele>1599</ele>
        <time>2016-06-17T17:04:09Z</time>
      </trkpt>
      <trkpt lat="44.5078" lon="6.21749">
        <ele>1613</ele>
        <time>2016-06-17T17:06:09Z</time>
      </trkpt>
      <trkpt lat="44.50712" lon="6.21788">
        <ele>1604</ele>
        <time>2016-06-17T17:08:09Z</time>
      </trkpt>
      <trkpt lat="44.50614" lon="6.21809">
        <ele>1604</ele>
        <time>2016-06-17T17:10:09Z</time>
      </trkpt>
      <trkpt lat="44.50495" lon="6.21741">
        <ele>1603</ele>
        <time>2016-06-17T17:12:09Z</time>
      </trkpt>
      <trkpt lat="44.50364" lon="6.21663">
        <ele>1619</ele>
        <time>2016-06-17T17:14:09Z</time>
      </trkpt>
      <trkpt lat="44.50259" lon="6.21595">
        <ele>1626</ele>
        <time>2016-06-17T17:16:09Z</time>
      </trkpt>
      <trkpt lat="44.50192" lon="6.21595">
        <ele>1633</ele>
        <time>2016-06-17T17:18:09Z</time>
      </trkpt>
      <trkpt lat="44.50134" lon="6.21526">
        <ele>1640</ele>
        <time>2016-06-17T17:20:09Z</time>
      </trkpt>
      <trkpt lat="44.50073" lon="6.21586">
        <ele>1650</ele>
        <time>2016-06-17T17:22:09Z</time>
      </trkpt>
      <trkpt lat="44.50008" lon="6.21552">
        <ele>1657</ele>
        <time>2016-06-17T17:24:09Z</time>
      </trkpt>
      <trkpt lat="44.49929" lon="6.21505">
        <ele>1665</ele>
        <time>2016-06-17T17:26:09Z</time>
      </trkpt>
      <trkpt lat="44.49843" lon="6.21586">
        <ele>1682</ele>
        <time>2016-06-17T17:28:09Z</time>
      </trkpt>
      <trkpt lat="44.49782" lon="6.21552">
        <ele>1689</ele>
        <time>2016-06-17T17:30:09Z</time>
      </trkpt>
      <trkpt lat="44.49705" lon="6.21573">
        <ele>1701</ele>
        <time>2016-06-17T17:32:09Z</time>
      </trkpt>
      <trkpt lat="44.49589" lon="6.21676">
        <ele>1720</ele>
        <time>2016-06-17T17:34:09Z</time>
      </trkpt>
      <trkpt lat="44.49562" lon="6.21801">
        <ele>1726</ele>
        <time>2016-06-17T17:36:09Z</time>
      </trkpt>
      <trkpt lat="44.49607" lon="6.22045">
        <ele>1716</ele>
        <time>2016-06-17T17:38:09Z</time>
      </trkpt>
      <trkpt lat="44.49623" lon="6.22217">
        <ele>1688</ele>
        <time>2016-06-17T17:40:09Z</time>
      </trkpt>
      <trkpt lat="44.49589" lon="6.21968">
        <ele>1724</ele>
        <time>2016-06-17T17:42:09Z</time>
      </trkpt>
      <trkpt lat="44.49565" lon="6.21723">
        <ele>1724</ele>
        <time>2016-06-17T17:44:09Z</time>
      </trkpt>
      <trkpt lat="44.49659" lon="6.21612">
        <ele>1708</ele>
        <time>2016-06-17T17:46:09Z</time>
      </trkpt>
      <trkpt lat="44.49748" lon="6.21539">
        <ele>1693</ele>
        <time>2016-06-17T17:48:09Z</time>
      </trkpt>
      <trkpt lat="44.49813" lon="6.2159">
        <ele>1688</ele>
        <time>2016-06-17T17:50:09Z</time>
      </trkpt>
      <trkpt lat="44.49901" lon="6.21522">
        <ele>1670</ele>
        <time>2016-06-17T17:52:09Z</time>
      </trkpt>
      <trkpt lat="44.49975" lon="6.21526">
        <ele>1659</ele>
        <time>2016-06-17T17:54:09Z</time>
      </trkpt>
      <trkpt lat="44.50042" lon="6.2156">
        <ele>1653</ele>
        <time>2016-06-17T17:56:09Z</time>
      </trkpt>
      <trkpt lat="44.50113" lon="6.21552">
        <ele>1643</ele>
        <time>2016-06-17T17:58:09Z</time>
      </trkpt>
      <trkpt lat="44.50113" lon="6.2138">
        <ele>1636</ele>
        <time>2016-06-17T18:00:09Z</time>
      </trkpt>
      <trkpt lat="44.50079" lon="6.21303">
        <ele>1628</ele>
        <time>2016-06-17T18:02:09Z</time>
      </trkpt>
      <trkpt lat="44.50039" lon="6.21157">
        <ele>1610</ele>
        <time>2016-06-17T18:04:09Z</time>
      </trkpt>
      <trkpt lat="44.50024" lon="6.21041">
        <ele>1591</ele>
        <time>2016-06-17T18:06:09Z</time>
      </trkpt>
      <trkpt lat="44.49963" lon="6.2096">
        <ele>1572</ele>
        <time>2016-06-17T18:08:09Z</time>
      </trkpt>
      <trkpt lat="44.49953" lon="6.20749">
        <ele>1569</ele>
        <time>2016-06-17T18:10:09Z</time>
      </trkpt>
      <trkpt lat="44.49978" lon="6.20509">
        <ele>1537</ele>
        <time>2016-06-17T18:12:09Z</time>
      </trkpt>
      <trkpt lat="44.50024" lon="6.20354">
        <ele>1516</ele>
        <time>2016-06-17T18:14:09Z</time>
      </trkpt>
      <trkpt lat="44.50088" lon="6.2026">
        <ele>1507</ele>
        <time>2016-06-17T18:16:09Z</time>
      </trkpt>
      <trkpt lat="44.50192" lon="6.20286">
        <ele>1489</ele>
        <time>2016-06-17T18:18:09Z</time>
      </trkpt>
      <trkpt lat="44.50143" lon="6.20187">
        <ele>1476</ele>
        <time>2016-06-17T18:20:09Z</time>
      </trkpt>
      <trkpt lat="44.50005" lon="6.20144">
        <ele>1464</ele>
        <time>2016-06-17T18:22:09Z</time>
      </trkpt>
      <trkpt lat="44.49975" lon="6.20041">
        <ele>1450</ele>
        <time>2016-06-17T18:24:09Z</time>
      </trkpt>
      <trkpt lat="44.49877" lon="6.19994">
        <ele>1437</ele>
        <time>2016-06-17T18:26:09Z</time>
      </trkpt>
      <trkpt lat="44.49718" lon="6.19994">
        <ele>1413</ele>
        <time>2016-06-17T18:28:09Z</time>
      </trkpt>
      <trkpt lat="44.49779" lon="6.1993">
        <ele>1413</ele>
        <time>2016-06-17T18:30:09Z</time>
      </trkpt>
      <trkpt lat="44.49871" lon="6.19895">
        <ele>1418</ele>
        <time>2016-06-17T18:32:09Z</time>
      </trkpt>
      <trkpt lat="44.49898" lon="6.19809">
        <ele>1414</ele>
        <time>2016-06-17T18:34:09Z</time>
      </trkpt>
      <trkpt lat="44.49904" lon="6.19724">
        <ele>1407</ele>
        <time>2016-06-17T18:36:09Z</time>
      </trkpt>
      <trkpt lat="44.49901" lon="6.19586">
        <ele>1391</ele>
        <time>2016-06-17T18:38:09Z</time>
      </trkpt>
      <trkpt lat="44.49978" lon="6.19548">
        <ele>1382</ele>
        <time>2016-06-17T18:40:09Z</time>
      </trkpt>
      <trkpt lat="44.50076" lon="6.19518">
        <ele>1380</ele>
        <time>2016-06-17T18:42:09Z</time>
      </trkpt>
      <trkpt lat="44.50158" lon="6.19462">
        <ele>1369</ele>
        <time>2016-06-17T18:44:09Z</time>
      </trkpt>
      <trkpt lat="44.50281" lon="6.19505">
        <ele>1367</ele>
        <time>2016-06-17T18:46:09Z</time>
      </trkpt>
      <trkpt lat="44.50354" lon="6.19548">
        <ele>1367</ele>
        <time>2016-06-17T18:48:09Z</time>
      </trkpt>
      <trkpt lat="44.50465" lon="6.19672">
        <ele>1380</ele>
        <time>2016-06-17T18:50:09Z</time>
      </trkpt>
      <trkpt lat="44.50523" lon="6.19758">
        <ele>1375</ele>
        <time>2016-06-17T18:52:09Z</time>
      </trkpt>
      <trkpt lat="44.5055" lon="6.19655">
        <ele>1360</ele>
        <time>2016-06-17T18:54:09Z</time>
      </trkpt>
      <trkpt lat="44.50513" lon="6.19539">
        <ele>1346</ele>
        <time>2016-06-17T18:56:09Z</time>
      </trkpt>
      <trkpt lat="44.5055" lon="6.19531">
        <ele>1340</ele>
        <time>2016-06-17T18:58:09Z</time>
      </trkpt>
      <trkpt lat="44.50648" lon="6.19582">
        <ele>1329</ele>
        <time>2016-06-17T19:00:09Z</time>
      </trkpt>
      <trkpt lat="44.5067" lon="6.19608">
        <ele>1323</ele>
        <time>2016-06-17T19:02:09Z</time>
      </trkpt>
      <trkpt lat="44.50694" lon="6.19505">
        <ele>1308</ele>
        <time>2016-06-17T19:04:09Z</time>
      </trkpt>
      <trkpt lat="44.50642" lon="6.19393">
        <ele>1307</ele>
        <time>2016-06-17T19:06:09Z</time>
      </trkpt>
      <trkpt lat="44.50602" lon="6.19277">
        <ele>1289</ele>
        <time>2016-06-17T19:08:09Z</time>
      </trkpt>
      <trkpt lat="44.50523" lon="6.19174">
        <ele>1277</ele>
        <time>2016-06-17T19:10:09Z</time>
      </trkpt>
      <trkpt lat="44.50471" lon="6.19046">
        <ele>1262</ele>
        <time>2016-06-17T19:12:09Z</time>
      </trkpt>
      <trkpt lat="44.50409" lon="6.19007">
        <ele>1263</ele>
        <time>2016-06-17T19:14:09Z</time>
      </trkpt>
      <trkpt lat="44.50321" lon="6.18985">
        <ele>1266</ele>
        <time>2016-06-17T19:16:09Z</time>
      </trkpt>
      <trkpt lat="44.50232" lon="6.19007">
        <ele>1276</ele>
        <time>2016-06-17T19:18:09Z</time>
      </trkpt>
      <trkpt lat="44.50174" lon="6.1902">
        <ele>1277</ele>
        <time>2016-06-17T19:20:09Z</time>
      </trkpt>
      <trkpt lat="44.50198" lon="6.19097">
        <ele>1288</ele>
        <time>2016-06-17T19:22:09Z</time>
      </trkpt>
      <trkpt lat="44.50125" lon="6.19101">
        <ele>1287</ele>
        <time>2016-06-17T19:24:09Z</time>
      </trkpt>
      <trkpt lat="44.50024" lon="6.19136">
        <ele>1293</ele>
        <time>2016-06-17T19:26:09Z</time>
      </trkpt>
      <trkpt lat="44.49871" lon="6.19067">
        <ele>1296</ele>
        <time>2016-06-17T19:28:09Z</time>
      </trkpt>
      <trkpt lat="44.49696" lon="6.19063">
        <ele>1299</ele>
        <time>2016-06-17T19:30:09Z</time>
      </trkpt>
      <trkpt lat="44.4958" lon="6.19063">
        <ele>1282</ele>
        <time>2016-06-17T19:32:09Z</time>
      </trkpt>
      <trkpt lat="44.49525" lon="6.19067">
        <ele>1274</ele>
        <time>2016-06-17T19:34:09Z</time>
      </trkpt>
      <trkpt lat="44.49448" lon="6.19093">
        <ele>1278</ele>
        <time>2016-06-17T19:36:09Z</time>
      </trkpt>
      <trkpt lat="44.49412" lon="6.19028">
        <ele>1255</ele>
        <time>2016-06-17T19:38:09Z</time>
      </trkpt>
      <trkpt lat="44.49329" lon="6.1899">
        <ele>1245</ele>
        <time>2016-06-17T19:40:09Z</time>
      </trkpt>
      <trkpt lat="44.49243" lon="6.18943">
        <ele>1228</ele>
        <time>2016-06-17T19:42:09Z</time>
      </trkpt>
      <trkpt lat="44.4917" lon="6.18943">
        <ele>1217</ele>
        <time>2016-06-17T19:44:09Z</time>
      </trkpt>
      <trkpt lat="44.49173" lon="6.18882">
        <ele>1200</ele>
        <time>2016-06-17T19:46:09Z</time>
      </trkpt>
      <trkpt lat="44.49056" lon="6.18818">
        <ele>1178</ele>
        <time>2016-06-17T19:48:09Z</time>
      </trkpt>
      <trkpt lat="44.48995" lon="6.18818">
        <ele>1173</ele>
        <time>2016-06-17T19:50:09Z</time>
      </trkpt>
      <trkpt lat="44.4894" lon="6.18762">
        <ele>1160</ele>
        <time>2016-06-17T19:52:09Z</time>
      </trkpt>
      <trkpt lat="44.4887" lon="6.18728">
        <ele>1148</ele>
        <time>2016-06-17T19:54:09Z</time>
      </trkpt>
      <trkpt lat="44.4879" lon="6.18599">
        <ele>1139</ele>
        <time>2016-06-17T19:56:09Z</time>
      </trkpt>
      <trkpt lat="44.48714" lon="6.18436">
        <ele>1129</ele>
        <time>2016-06-17T19:58:09Z</time>
      </trkpt>
      <trkpt lat="44.48695" lon="6.18376">
        <ele>1131</ele>
        <time>2016-06-17T20:00:09Z</time>
      </trkpt>
      <trkpt lat="44.4864" lon="6.18325">
        <ele>1133</ele>
        <time>2016-06-17T20:02:09Z</time>
      </trkpt>
      <trkpt lat="44.48597" lon="6.18337">
        <ele>1130</ele>
        <time>2016-06-17T20:04:09Z</time>
      </trkpt>
      <trkpt lat="44.48527" lon="6.18234">
        <ele>1140</ele>
        <time>2016-06-17T20:06:09Z</time>
      </trkpt>
      <trkpt lat="44.48597" lon="6.18234">
        <ele>1149</ele>
        <time>2016-06-17T20:08:09Z</time>
      </trkpt>
      <trkpt lat="44.48646" lon="6.18157">
        <ele>1160</ele>
        <time>2016-06-17T20:10:09Z</time>
      </trkpt>
      <trkpt lat="44.48747" lon="6.18153">
        <ele>1169</ele>
        <time>2016-06-17T20:12:09Z</time>
      </trkpt>
      <trkpt lat="44.48833" lon="6.18166">
        <ele>1181</ele>
        <time>2016-06-17T20:14:09Z</time>
      </trkpt>
      <trkpt lat="44.48778" lon="6.1805">
        <ele>1200</ele>
        <time>2016-06-17T20:16:09Z</time>
      </trkpt>
      <trkpt lat="44.4868" lon="6.17956">
        <ele>1221</ele>
        <time>2016-06-17T20:18:09Z</time>
      </trkpt>
      <trkpt lat="44.48579" lon="6.17925">
        <ele>1216</ele>
        <time>2016-06-17T20:20:09Z</time>
      </trkpt>
      <trkpt lat="44.48515" lon="6.17895">
        <ele>1204</ele>
        <time>2016-06-17T20:22:09Z</time>
      </trkpt>
      <trkpt lat="44.48511" lon="6.17792">
        <ele>1228</ele>
        <time>2016-06-17T20:24:09Z</time>
      </trkpt>
      <trkpt lat="44.48459" lon="6.17745">
        <ele>1229</ele>
        <time>2016-06-17T20:26:09Z</time>
      </trkpt>
      <trkpt lat="44.48392" lon="6.17728">
        <ele>1226</ele>
        <time>2016-06-17T20:28:09Z</time>
      </trkpt>
      <trkpt lat="44.48282" lon="6.17689">
        <ele>1221</ele>
        <time>2016-06-17T20:30:09Z</time>
      </trkpt>
      <trkpt lat="44.48239" lon="6.17668">
        <ele>1223</ele>
        <time>2016-06-17T20:32:09Z</time>
      </trkpt>
      <trkpt lat="44.48141" lon="6.17737">
        <ele>1222</ele>
        <time>2016-06-17T20:34:09Z</time>
      </trkpt>
      <trkpt lat="44.48074" lon="6.17805">
        <ele>1224</ele>
        <time>2016-06-17T20:36:09Z</time>
      </trkpt>
      <trkpt lat="44.48025" lon="6.17711">
        <ele>1234</ele>
        <time>2016-06-17T20:38:09Z</time>
      </trkpt>
      <trkpt lat="44.47985" lon="6.17612">
        <ele>1233</ele>
        <time>2016-06-17T20:40:09Z</time>
      </trkpt>
      <trkpt lat="44.47982" lon="6.17479">
        <ele>1243</ele>
        <time>2016-06-17T20:42:09Z</time>
      </trkpt>
      <trkpt lat="44.47924" lon="6.17423">
        <ele>1235</ele>
        <time>2016-06-17T20:44:09Z</time>
      </trkpt>
      <trkpt lat="44.47816" lon="6.17329">
        <ele>1236</ele>
        <time>2016-06-17T20:46:09Z</time>
      </trkpt>
      <trkpt lat="44.47752" lon="6.17235">
        <ele>1228</ele>
        <time>2016-06-17T20:48:09Z</time>
      </trkpt>
      <trkpt lat="44.47721" lon="6.1714">
        <ele>1220</ele>
        <time>2016-06-17T20:50:09Z</time>
      </trkpt>
      <trkpt lat="44.47752" lon="6.1705">
        <ele>1212</ele>
        <time>2016-06-17T20:52:09Z</time>
      </trkpt>
      <trkpt lat="44.47872" lon="6.17037">
        <ele>1211</ele>
        <time>2016-06-17T20:54:09Z</time>
      </trkpt>
      <trkpt lat="44.4796" lon="6.1699">
        <ele>1198</ele>
        <time>2016-06-17T20:56:09Z</time>
      </trkpt>
      <trkpt lat="44.48077" lon="6.16951">
        <ele>1189</ele>
        <time>2016-06-17T20:58:09Z</time>
      </trkpt>
      <trkpt lat="44.48181" lon="6.16887">
        <ele>1190</ele>
        <time>2016-06-17T21:00:09Z</time>
      </trkpt>
      <trkpt lat="44.4819" lon="6.16797">
        <ele>1178</ele>
        <time>2016-06-17T21:02:09Z</time>
      </trkpt>
      <trkpt lat="44.48172" lon="6.16617">
        <ele>1143</ele>
        <time>2016-06-17T21:04:09Z</time>
      </trkpt>
      <trkpt lat="44.483" lon="6.16621">
        <ele>1147</ele>
        <time>2016-06-17T21:06:09Z</time>
      </trkpt>
      <trkpt lat="44.48413" lon="6.16578">
        <ele>1132</ele>
        <time>2016-06-17T21:08:09Z</time>
      </trkpt>
      <trkpt lat="44.48484" lon="6.16569">
        <ele>1134</ele>
        <time>2016-06-17T21:10:09Z</time>
      </trkpt>
      <trkpt lat="44.48594" lon="6.16651">
        <ele>1156</ele>
        <time>2016-06-17T21:12:09Z</time>
      </trkpt>
      <trkpt lat="44.48637" lon="6.1672">
        <ele>1159</ele>
        <time>2016-06-17T21:14:09Z</time>
      </trkpt>
      <trkpt lat="44.4864" lon="6.16934">
        <ele>1164</ele>
        <time>2016-06-17T21:16:09Z</time>
      </trkpt>
      <trkpt lat="44.48622" lon="6.17054">
        <ele>1168</ele>
        <time>2016-06-17T21:18:09Z</time>
      </trkpt>
      <trkpt lat="44.48609" lon="6.17174">
        <ele>1184</ele>
        <time>2016-06-17T21:20:09Z</time>
      </trkpt>
      <trkpt lat="44.48649" lon="6.17243">
        <ele>1196</ele>
        <time>2016-06-17T21:22:09Z</time>
      </trkpt>
      <trkpt lat="44.48692" lon="6.1726">
        <ele>1196</ele>
        <time>2016-06-17T21:24:09Z</time>
      </trkpt>
      <trkpt lat="44.48756" lon="6.17192">
        <ele>1165</ele>
        <time>2016-06-17T21:26:09Z</time>
      </trkpt>
      <trkpt lat="44.48799" lon="6.17222">
        <ele>1164</ele>
        <time>2016-06-17T21:28:09Z</time>
      </trkpt>
      <trkpt lat="44.4883" lon="6.17307">
        <ele>1179</ele>
        <time>2016-06-17T21:30:09Z</time>
      </trkpt>
      <trkpt lat="44.48888" lon="6.17286">
        <ele>1168</ele>
        <time>2016-06-17T21:32:09Z</time>
      </trkpt>
      <trkpt lat="44.48916" lon="6.17222">
        <ele>1148</ele>
        <time>2016-06-17T21:34:09Z</time>
      </trkpt>
      <trkpt lat="44.48952" lon="6.17093">
        <ele>1142</ele>
        <time>2016-06-17T21:36:09Z</time>
      </trkpt>
      <trkpt lat="44.48968" lon="6.17007">
        <ele>1124</ele>
        <time>2016-06-17T21:38:09Z</time>
      </trkpt>
      <trkpt lat="44.49154" lon="6.17007">
        <ele>1116</ele>
        <time>2016-06-17T21:40:09Z</time>
      </trkpt>
      <trkpt lat="44.49164" lon="6.17097">
        <ele>1117</ele>
        <time>2016-06-17T21:42:09Z</time>
      </trkpt>
      <trkpt lat="44.49216" lon="6.1717">
        <ele>1093</ele>
        <time>2016-06-17T21:44:09Z</time>
      </trkpt>
      <trkpt lat="44.4924" lon="6.17286">
        <ele>1103</ele>
        <time>2016-06-17T21:46:09Z</time>
      </trkpt>
      <trkpt lat="44.49262" lon="6.17329">
        <ele>1106</ele>
        <time>2016-06-17T21:48:09Z</time>
      </trkpt>
      <trkpt lat="44.49381" lon="6.17355">
        <ele>1077</ele>
        <time>2016-06-17T21:50:09Z</time>
      </trkpt>
      <trkpt lat="44.4947" lon="6.1741">
        <ele>1065</ele>
        <time>2016-06-17T21:52:09Z</time>
      </trkpt>
      <trkpt lat="44.49552" lon="6.17492">
        <ele>1048</ele>
        <time>2016-06-17T21:54:09Z</time>
      </trkpt>
      <trkpt lat="44.49531" lon="6.17621">
        <ele>1081</ele>
        <time>2016-06-17T21:56:09Z</time>
      </trkpt>
      <trkpt lat="44.49641" lon="6.17651">
        <ele>1047</ele>
        <time>2016-06-17T21:58:09Z</time>
      </trkpt>
      <trkpt lat="44.49736" lon="6.17707">
        <ele>1031</ele>
        <time>2016-06-17T22:00:09Z</time>
      </trkpt>
      <trkpt lat="44.49779" lon="6.17801">
        <ele>1035</ele>
        <time>2016-06-17T22:02:09Z</time>
      </trkpt>
      <trkpt lat="44.49773" lon="6.17883">
        <ele>1057</ele>
        <time>2016-06-17T22:04:09Z</time>
      </trkpt>
      <trkpt lat="44.49858" lon="6.17814">
        <ele>1032</ele>
        <time>2016-06-17T22:06:09Z</time>
      </trkpt>
      <trkpt lat="44.49914" lon="6.17724">
        <ele>1023</ele>
        <time>2016-06-17T22:08:09Z</time>
      </trkpt>
      <trkpt lat="44.49996" lon="6.17694">
        <ele>1020</ele>
        <time>2016-06-17T22:10:09Z</time>
      </trkpt>
      <trkpt lat="44.49956" lon="6.17629">
        <ele>1003</ele>
        <time>2016-06-17T22:12:09Z</time>
      </trkpt>
      <trkpt lat="44.49901" lon="6.17552">
        <ele>984</ele>
        <time>2016-06-17T22:14:09Z</time>
      </trkpt>
      <trkpt lat="44.49944" lon="6.17432">
        <ele>971</ele>
        <time>2016-06-17T22:16:09Z</time>
      </trkpt>
      <trkpt lat="44.50018" lon="6.17432">
        <ele>970</ele>
        <time>2016-06-17T22:18:09Z</time>
      </trkpt>
      <trkpt lat="44.50094" lon="6.17419">
        <ele>959</ele>
        <time>2016-06-17T22:20:09Z</time>
      </trkpt>
      <trkpt lat="44.50122" lon="6.17338">
        <ele>944</ele>
        <time>2016-06-17T22:22:09Z</time>
      </trkpt>
      <trkpt lat="44.50174" lon="6.17342">
        <ele>941</ele>
        <time>2016-06-17T22:24:09Z</time>
      </trkpt>
      <trkpt lat="44.50226" lon="6.1732">
        <ele>930</ele>
        <time>2016-06-17T22:26:09Z</time>
      </trkpt>
      <trkpt lat="44.50157" lon="6.1725">
        <ele>924</ele>
        <time>2016-06-17T22:28:09Z</time>
      </trkpt>
      <trkpt lat="44.50097" lon="6.17198">
        <ele>919</ele>
        <time>2016-06-17T22:30:09Z</time>
      </trkpt>
      <trkpt lat="44.50056" lon="6.17176">
        <ele>918</ele>
        <time>2016-06-17T22:32:09Z</time>
      </trkpt>
      <trkpt lat="44.50011" lon="6.1714">
        <ele>913</ele>
        <time>2016-06-17T22:34:09Z</time>
      </trkpt>
      <trkpt lat="44.4997" lon="6.17106">
        <ele>906</ele>
        <time>2016-06-17T22:36:09Z</time>
      </trkpt>
      <trkpt lat="44.49946" lon="6.1706">
        <ele>895</ele>
        <time>2016-06-17T22:38:09Z</time>
      </trkpt>
      <trkpt lat="44.49901" lon="6.17018">
        <ele>884</ele>
        <time>2016-06-17T22:40:09Z</time>
      </trkpt>
      <trkpt lat="44.4997" lon="6.17013">
        <ele>880</ele>
        <time>2016-06-17T22:42:09Z</time>
      </trkpt>
      <trkpt lat="44.50065" lon="6.16988">
        <ele>871</ele>
        <time>2016-06-17T22:44:09Z</time>
      </trkpt>
      <trkpt lat="44.50063" lon="6.16943">
        <ele>861</ele>
        <time>2016-06-17T22:46:09Z</time>
      </trkpt>
      <trkpt lat="44.50096" lon="6.16908">
        <ele>853</ele>
        <time>2016-06-17T22:48:09Z</time>
      </trkpt>
      <trkpt lat="44.50153" lon="6.16913">
        <ele>853</ele>
        <time>2016-06-17T22:50:09Z</time>
      </trkpt>
      <trkpt lat="44.50201" lon="6.16889">
        <ele>844</ele>
        <time>2016-06-17T22:52:09Z</time>
      </trkpt>
      <trkpt lat="44.50225" lon="6.16891">
        <ele>842</ele>
        <time>2016-06-17T22:54:09Z</time>
      </trkpt>
      <trkpt lat="44.50256" lon="6.16928">
        <ele>847</ele>
        <time>2016-06-17T22:56:09Z</time>
      </trkpt>
      <trkpt lat="44.50269" lon="6.16782">
        <ele>825</ele>
        <time>2016-06-17T22:58:09Z</time>
      </trkpt>
      <trkpt lat="44.50286" lon="6.16739">
        <ele>820</ele>
        <time>2016-06-17T23:00:09Z</time>
      </trkpt>
      <trkpt lat="44.50314" lon="6.16705">
        <ele>819</ele>
        <time>2016-06-17T23:02:09Z</time>
      </trkpt>
      <trkpt lat="44.50367" lon="6.16715">
        <ele>824</ele>
        <time>2016-06-17T23:04:09Z</time>
      </trkpt>
      <trkpt lat="44.50398" lon="6.16763">
        <ele>831</ele>
        <time>2016-06-17T23:06:09Z</time>
      </trkpt>
      <trkpt lat="44.50438" lon="6.16808">
        <ele>840</ele>
        <time>2016-06-17T23:08:09Z</time>
      </trkpt>
      <trkpt lat="44.50505" lon="6.16838">
        <ele>849</ele>
        <time>2016-06-17T23:10:09Z</time>
      </trkpt>
      <trkpt lat="44.50549" lon="6.16881">
        <ele>855</ele>
        <time>2016-06-17T23:12:09Z</time>
      </trkpt>
      <trkpt lat="44.50568" lon="6.16919">
        <ele>859</ele>
        <time>2016-06-17T23:14:09Z</time>
      </trkpt>
      <trkpt lat="44.50546" lon="6.16926">
        <ele>862</ele>
        <time>2016-06-17T23:16:09Z</time>
      </trkpt>
      <trkpt lat="44.50514" lon="6.16904">
        <ele>860</ele>
        <time>2016-06-17T23:18:09Z</time>
      </trkpt>
      <trkpt lat="44.50485" lon="6.16981">
        <ele>872</ele>
        <time>2016-06-17T23:20:09Z</time>
      </trkpt>
      <trkpt lat="44.50484" lon="6.17035">
        <ele>881</ele>
        <time>2016-06-17T23:22:09Z</time>
      </trkpt>
      <trkpt lat="44.50519" lon="6.17093">
        <ele>889</ele>
        <time>2016-06-17T23:24:09Z</time>
      </trkpt>
      <trkpt lat="44.50465" lon="6.17102">
        <ele>892</ele>
        <time>2016-06-17T23:26:09Z</time>
      </trkpt>
      <trkpt lat="44.50522" lon="6.17162">
        <ele>900</ele>
        <time>2016-06-17T23:28:09Z</time>
      </trkpt>
      <trkpt lat="44.50577" lon="6.17243">
        <ele>910</ele>
        <time>2016-06-17T23:30:09Z</time>
      </trkpt>
      <trkpt lat="44.50621" lon="6.17359">
        <ele>928</ele>
        <time>2016-06-17T23:32:09Z</time>
      </trkpt>
      <trkpt lat="44.50547" lon="6.17359">
        <ele>931</ele>
        <time>2016-06-17T23:34:09Z</time>
      </trkpt>
      <trkpt lat="44.50483" lon="6.17372">
        <ele>935</ele>
        <time>2016-06-17T23:36:09Z</time>
      </trkpt>
      <trkpt lat="44.50452" lon="6.17428">
        <ele>940</ele>
        <time>2016-06-17T23:38:09Z</time>
      </trkpt>
      <trkpt lat="44.50513" lon="6.17445">
        <ele>947</ele>
        <time>2016-06-17T23:40:09Z</time>
      </trkpt>
      <trkpt lat="44.50523" lon="6.17513">
        <ele>955</ele>
        <time>2016-06-17T23:42:09Z</time>
      </trkpt>
      <trkpt lat="44.50611" lon="6.17655">
        <ele>968</ele>
        <time>2016-06-17T23:44:09Z</time>
      </trkpt>
      <trkpt lat="44.50654" lon="6.1775">
        <ele>980</ele>
        <time>2016-06-17T23:46:09Z</time>
      </trkpt>
      <trkpt lat="44.50709" lon="6.1787">
        <ele>995</ele>
        <time>2016-06-17T23:48:09Z</time>
      </trkpt>
      <trkpt lat="44.50746" lon="6.17943">
        <ele>1001</ele>
        <time>2016-06-17T23:50:09Z</time>
      </trkpt>
      <trkpt lat="44.50752" lon="6.18166">
        <ele>1028</ele>
        <time>2016-06-17T23:52:09Z</time>
      </trkpt>
      <trkpt lat="44.50792" lon="6.18166">
        <ele>1022</ele>
        <time>2016-06-17T23:54:09Z</time>
      </trkpt>
      <trkpt lat="44.50823" lon="6.18192">
        <ele>1024</ele>
        <time>2016-06-17T23:56:09Z</time>
      </trkpt>
      <trkpt lat="44.50853" lon="6.18239">
        <ele>1026</ele>
        <time>2016-06-17T23:58:09Z</time>
      </trkpt>
      <trkpt lat="44.50896" lon="6.1823">
        <ele>1012</ele>
        <time>2016-06-18T00:00:09Z</time>
      </trkpt>
      <trkpt lat="44.50905" lon="6.18312">
        <ele>1027</ele>
        <time>2016-06-18T00:02:09Z</time>
      </trkpt>
      <trkpt lat="44.50945" lon="6.18247">
        <ele>1004</ele>
        <time>2016-06-18T00:04:09Z</time>
      </trkpt>
      <trkpt lat="44.51028" lon="6.18187">
        <ele>979</ele>
        <time>2016-06-18T00:06:09Z</time>
      </trkpt>
      <trkpt lat="44.51101" lon="6.1817">
        <ele>965</ele>
        <time>2016-06-18T00:08:09Z</time>
      </trkpt>
      <trkpt lat="44.51184" lon="6.18187">
        <ele>951</ele>
        <time>2016-06-18T00:10:09Z</time>
      </trkpt>
      <trkpt lat="44.51248" lon="6.18209">
        <ele>944</ele>
        <time>2016-06-18T00:12:09Z</time>
      </trkpt>
      <trkpt lat="44.51306" lon="6.18204">
        <ele>932</ele>
        <time>2016-06-18T00:14:09Z</time>
      </trkpt>
      <trkpt lat="44.51373" lon="6.18282">
        <ele>928</ele>
        <time>2016-06-18T00:16:09Z</time>
      </trkpt>
      <trkpt lat="44.51447" lon="6.18359">
        <ele>918</ele>
        <time>2016-06-18T00:18:09Z</time>
      </trkpt>
      <trkpt lat="44.51465" lon="6.18428">
        <ele>917</ele>
        <time>2016-06-18T00:20:09Z</time>
      </trkpt>
      <trkpt lat="44.51487" lon="6.18578">
        <ele>924</ele>
        <time>2016-06-18T00:22:09Z</time>
      </trkpt>
      <trkpt lat="44.5152" lon="6.18591">
        <ele>924</ele>
        <time>2016-06-18T00:24:09Z</time>
      </trkpt>
      <trkpt lat="44.51566" lon="6.18475">
        <ele>904</ele>
        <time>2016-06-18T00:26:09Z</time>
      </trkpt>
      <trkpt lat="44.51603" lon="6.1847">
        <ele>903</ele>
        <time>2016-06-18T00:28:09Z</time>
      </trkpt>
      <trkpt lat="44.51618" lon="6.18376">
        <ele>884</ele>
        <time>2016-06-18T00:30:09Z</time>
      </trkpt>
      <trkpt lat="44.51664" lon="6.18329">
        <ele>880</ele>
        <time>2016-06-18T00:32:09Z</time>
      </trkpt>
      <trkpt lat="44.51725" lon="6.18346">
        <ele>876</ele>
        <time>2016-06-18T00:34:09Z</time>
      </trkpt>
      <trkpt lat="44.51796" lon="6.18428">
        <ele>882</ele>
        <time>2016-06-18T00:36:09Z</time>
      </trkpt>
      <trkpt lat="44.51897" lon="6.18505">
        <ele>884</ele>
        <time>2016-06-18T00:38:09Z</time>
      </trkpt>
      <trkpt lat="44.51949" lon="6.18591">
        <ele>893</ele>
        <time>2016-06-18T00:40:09Z</time>
      </trkpt>
      <trkpt lat="44.52038" lon="6.18672">
        <ele>898</ele>
        <time>2016-06-18T00:42:09Z</time>
      </trkpt>
      <trkpt lat="44.52135" lon="6.18741">
        <ele>897</ele>
        <time>2016-06-18T00:44:09Z</time>
      </trkpt>
      <trkpt lat="44.52209" lon="6.18827">
        <ele>899</ele>
        <time>2016-06-18T00:46:09Z</time>
      </trkpt>
      <trkpt lat="44.52331" lon="6.18882">
        <ele>891</ele>
        <time>2016-06-18T00:48:09Z</time>
      </trkpt>
      <trkpt lat="44.52478" lon="6.18968">
        <ele>891</ele>
        <time>2016-06-18T00:50:09Z</time>
      </trkpt>
      <trkpt lat="44.52555" lon="6.19007">
        <ele>888</ele>
        <time>2016-06-18T00:52:09Z</time>
      </trkpt>
      <trkpt lat="44.52524" lon="6.19123">
        <ele>899</ele>
        <time>2016-06-18T00:54:09Z</time>
      </trkpt>
      <trkpt lat="44.52503" lon="6.19256">
        <ele>913</ele>
        <time>2016-06-18T00:56:09Z</time>
      </trkpt>
      <trkpt lat="44.52475" lon="6.19359">
        <ele>938</ele>
        <time>2016-06-18T00:58:09Z</time>
      </trkpt>
      <trkpt lat="44.52533" lon="6.19496">
        <ele>953</ele>
        <time>2016-06-18T01:00:09Z</time>
      </trkpt>
      <trkpt lat="44.52585" lon="6.19642">
        <ele>967</ele>
        <time>2016-06-18T01:02:09Z</time>
      </trkpt>
      <trkpt lat="44.52613" lon="6.19672">
        <ele>965</ele>
        <time>2016-06-18T01:04:09Z</time>
      </trkpt>
      <trkpt lat="44.52677" lon="6.19612">
        <ele>944</ele>
        <time>2016-06-18T01:06:09Z</time>
      </trkpt>
      <trkpt lat="44.52732" lon="6.19526">
        <ele>931</ele>
        <time>2016-06-18T01:08:09Z</time>
      </trkpt>
      <trkpt lat="44.5283" lon="6.19393">
        <ele>915</ele>
        <time>2016-06-18T01:10:09Z</time>
      </trkpt>
      <trkpt lat="44.52897" lon="6.19316">
        <ele>905</ele>
        <time>2016-06-18T01:12:09Z</time>
      </trkpt>
      <trkpt lat="44.52909" lon="6.19213">
        <ele>909</ele>
        <time>2016-06-18T01:14:09Z</time>
      </trkpt>
      <trkpt lat="44.53032" lon="6.19076">
        <ele>893</ele>
        <time>2016-06-18T01:16:09Z</time>
      </trkpt>
      <trkpt lat="44.53093" lon="6.18891">
        <ele>867</ele>
        <time>2016-06-18T01:18:09Z</time>
      </trkpt>
      <trkpt lat="44.53108" lon="6.19041">
        <ele>861</ele>
        <time>2016-06-18T01:20:09Z</time>
      </trkpt>
      <trkpt lat="44.53145" lon="6.18985">
        <ele>848</ele>
        <time>2016-06-18T01:22:09Z</time>
      </trkpt>
      <trkpt lat="44.53157" lon="6.1887">
        <ele>835</ele>
        <time>2016-06-18T01:24:09Z</time>
      </trkpt>
      <trkpt lat="44.53105" lon="6.18732">
        <ele>828</ele>
        <time>2016-06-18T01:26:09Z</time>
      </trkpt>
      <trkpt lat="44.53075" lon="6.18625">
        <ele>809</ele>
        <time>2016-06-18T01:28:09Z</time>
      </trkpt>
      <trkpt lat="44.53004" lon="6.18556">
        <ele>807</ele>
        <time>2016-06-18T01:30:09Z</time>
      </trkpt>
      <trkpt lat="44.53118" lon="6.18621">
        <ele>795</ele>
        <time>2016-06-18T01:32:09Z</time>
      </trkpt>
      <trkpt lat="44.53188" lon="6.18672">
        <ele>782</ele>
        <time>2016-06-18T01:34:09Z</time>
      </trkpt>
      <trkpt lat="44.53243" lon="6.18762">
        <ele>779</ele>
        <time>2016-06-18T01:36:09Z</time>
      </trkpt>
      <trkpt lat="44.53411" lon="6.18814">
        <ele>760</ele>
        <time>2016-06-18T01:38:09Z</time>
      </trkpt>
      <trkpt lat="44.53475" lon="6.18955">
        <ele>761</ele>
        <time>2016-06-18T01:40:09Z</time>
      </trkpt>
      <trkpt lat="44.53494" lon="6.19174">
        <ele>766</ele>
        <time>2016-06-18T01:42:09Z</time>
      </trkpt>
      <trkpt lat="44.5354" lon="6.19372">
        <ele>769</ele>
        <time>2016-06-18T01:44:09Z</time>
      </trkpt>
      <trkpt lat="44.5365" lon="6.19569">
        <ele>764</ele>
        <time>2016-06-18T01:46:09Z</time>
      </trkpt>
      <trkpt lat="44.5369" lon="6.19676">
        <ele>768</ele>
        <time>2016-06-18T01:48:09Z</time>
      </trkpt>
      <trkpt lat="44.53745" lon="6.19878">
        <ele>764</ele>
        <time>2016-06-18T01:50:09Z</time>
      </trkpt>
      <trkpt lat="44.53821" lon="6.20191">
        <ele>772</ele>
        <time>2016-06-18T01:52:09Z</time>
      </trkpt>
      <trkpt lat="44.53919" lon="6.20406">
        <ele>783</ele>
        <time>2016-06-18T01:54:09Z</time>
      </trkpt>
      <trkpt lat="44.53989" lon="6.20483">
        <ele>778</ele>
        <time>2016-06-18T01:56:09Z</time>
      </trkpt>
      <trkpt lat="44.5406" lon="6.20479">
        <ele>772</ele>
        <time>2016-06-18T01:58:09Z</time>
      </trkpt>
      <trkpt lat="44.54188" lon="6.20586">
        <ele>772</ele>
        <time>2016-06-18T02:00:09Z</time>
      </trkpt>
      <trkpt lat="44.54338" lon="6.20754">
        <ele>782</ele>
        <time>2016-06-18T02:02:09Z</time>
      </trkpt>
      <trkpt lat="44.54494" lon="6.20895">
        <ele>784</ele>
        <time>2016-06-18T02:04:09Z</time>
      </trkpt>
    </trkseg>
  </trk>
</gpx>